Time,TemperatureF,DewpointF,PressureIn,WindDirection,WindDirectionDegrees,WindSpeedMPH,WindSpeedGustMPH,Humidity,HourlyPrecipIn,Conditions,Clouds,dailyrainin,SolarRadiationWatts/m^2,SoftwareType,DateUTC
2013-03-13 00:03:00,18.0,15.0,-100.00,WSW,247,5.0,10.0,86,0.00,,,0.00,0.000000,,2013-03-13 04:03:00,
2013-03-13 00:13:00,18.0,15.0,-100.00,WSW,247,5.0,10.0,86,0.00,,,0.00,0.000000,,2013-03-13 04:13:00,
2013-03-13 00:32:00,17.0,14.0,-100.00,WSW,244,4.0,7.0,89,0.00,,,0.00,0.000000,,2013-03-13 04:32:00,
2013-03-13 00:43:00,17.0,14.0,-100.00,WSW,244,4.0,7.0,89,0.00,,,0.00,0.000000,,2013-03-13 04:43:00,
2013-03-13 00:53:00,17.0,14.0,-100.00,WSW,244,4.0,7.0,89,0.00,,,0.00,0.000000,,2013-03-13 04:53:00,
2013-03-13 01:02:00,17.0,14.0,-100.00,WSW,244,4.0,7.0,89,0.00,,,0.00,0.000000,,2013-03-13 05:02:00,
2013-03-13 01:13:00,17.0,14.0,-100.00,WSW,244,4.0,7.0,89,0.00,,,0.00,0.000000,,2013-03-13 05:13:00,
2013-03-13 02:33:00,16.0,13.0,-100.00,WSW,250,3.0,6.0,89,-99.99,,,-99.99,0.000000,,2013-03-13 06:33:00,
2013-03-13 02:43:00,16.0,13.0,-100.00,WSW,250,3.0,6.0,89,-99.99,,,-99.99,0.000000,,2013-03-13 06:43:00,
2013-03-13 02:53:00,16.0,13.0,-100.00,WSW,250,3.0,6.0,89,-99.99,,,-99.99,0.000000,,2013-03-13 06:53:00,
2013-03-13 03:03:00,16.0,13.0,-100.00,WSW,250,3.0,6.0,89,-99.99,,,-99.99,0.000000,,2013-03-13 07:03:00,
2013-03-13 03:12:00,16.0,13.0,-100.00,WSW,250,3.0,6.0,89,-99.99,,,-99.99,0.000000,,2013-03-13 07:12:00,
2013-03-13 03:43:00,16.0,13.0,-100.00,West,268,4.0,7.0,88,0.00,,,0.00,0.000000,,2013-03-13 07:43:00,
2013-03-13 03:53:00,16.0,13.0,-100.00,West,268,4.0,7.0,88,0.00,,,0.00,0.000000,,2013-03-13 07:53:00,
2013-03-13 04:03:00,16.0,13.0,-100.00,West,268,4.0,7.0,88,0.00,,,0.00,0.000000,,2013-03-13 08:03:00,
2013-03-13 04:12:00,16.0,13.0,-100.00,West,268,4.0,7.0,88,0.00,,,0.00,0.000000,,2013-03-13 08:12:00,
2013-03-13 04:43:00,17.0,14.0,-100.00,NW,308,7.0,13.0,89,0.00,,,0.00,0.000000,,2013-03-13 08:43:00,
2013-03-13 04:54:00,17.0,14.0,-100.00,NW,308,7.0,13.0,89,0.00,,,0.00,0.000000,,2013-03-13 08:54:00,
2013-03-13 05:02:00,17.0,14.0,-100.00,NW,308,7.0,13.0,89,0.00,,,0.00,0.000000,,2013-03-13 09:02:00,
2013-03-13 05:13:00,17.0,14.0,-100.00,NW,308,7.0,13.0,89,0.00,,,0.00,0.000000,,2013-03-13 09:13:00,
2013-03-13 05:42:00,14.0,10.0,-100.00,NNW,339,8.0,18.0,83,0.00,,,0.00,0.000000,,2013-03-13 09:42:00,
2013-03-13 05:52:00,14.0,10.0,-100.00,NNW,339,8.0,18.0,83,0.00,,,0.00,0.000000,,2013-03-13 09:52:00,
2013-03-13 06:02:00,14.0,10.0,-100.00,NNW,339,8.0,18.0,83,0.00,,,0.00,0.000000,,2013-03-13 10:02:00,
2013-03-13 06:12:00,14.0,10.0,-100.00,NNW,339,8.0,18.0,83,0.00,,,0.00,0.000000,,2013-03-13 10:12:00,
2013-03-13 06:42:00,14.0,8.0,-100.00,North,349,8.0,16.0,78,0.00,,,0.00,0.000000,,2013-03-13 10:42:00,
2013-03-13 06:52:00,14.0,8.0,-100.00,North,349,8.0,16.0,78,0.00,,,0.00,0.000000,,2013-03-13 10:52:00,
2013-03-13 07:02:00,14.0,8.0,-100.00,North,349,8.0,16.0,78,0.00,,,0.00,0.000000,,2013-03-13 11:02:00,
2013-03-13 07:13:00,14.0,8.0,-100.00,North,349,8.0,16.0,78,0.00,,,0.00,0.000000,,2013-03-13 11:13:00,
2013-03-13 07:32:00,14.0,10.0,-100.00,North,350,6.0,14.0,82,0.00,,,0.00,0.000000,,2013-03-13 11:32:00,
2013-03-13 07:42:00,14.0,10.0,-100.00,North,350,6.0,14.0,82,0.00,,,0.00,0.000000,,2013-03-13 11:42:00,
2013-03-13 07:53:00,14.0,10.0,-100.00,North,350,6.0,14.0,82,0.00,,,0.00,0.000000,,2013-03-13 11:53:00,
2013-03-13 08:02:00,14.0,10.0,-100.00,North,350,6.0,14.0,82,0.00,,,0.00,0.000000,,2013-03-13 12:02:00,
2013-03-13 08:12:00,14.0,10.0,-100.00,North,350,6.0,14.0,82,0.00,,,0.00,0.000000,,2013-03-13 12:12:00,
2013-03-13 08:42:00,13.0,9.0,-100.00,NW,318,4.0,14.0,82,0.00,,,0.00,3.000000,,2013-03-13 12:42:00,
2013-03-13 08:53:00,13.0,9.0,-100.00,NW,318,4.0,14.0,82,0.00,,,0.00,3.000000,,2013-03-13 12:53:00,
2013-03-13 09:02:00,13.0,9.0,-100.00,NW,318,4.0,14.0,82,0.00,,,0.00,3.000000,,2013-03-13 13:02:00,
2013-03-13 09:12:00,13.0,9.0,-100.00,NW,318,4.0,14.0,82,0.00,,,0.00,3.000000,,2013-03-13 13:12:00,
2013-03-13 09:33:00,16.0,11.0,-100.00,NNW,327,9.0,16.0,80,0.00,,,0.00,55.000000,,2013-03-13 13:33:00,
2013-03-13 09:43:00,16.0,11.0,-100.00,NNW,327,9.0,16.0,80,0.00,,,0.00,55.000000,,2013-03-13 13:43:00,
2013-03-13 09:53:00,16.0,11.0,-100.00,NNW,327,9.0,16.0,80,0.00,,,0.00,55.000000,,2013-03-13 13:53:00,
2013-03-13 10:03:00,16.0,11.0,-100.00,NNW,327,9.0,16.0,80,0.00,,,0.00,55.000000,,2013-03-13 14:03:00,
2013-03-13 10:12:00,16.0,11.0,-100.00,NNW,327,9.0,16.0,80,0.00,,,0.00,55.000000,,2013-03-13 14:12:00,
2013-03-13 10:53:00,18.0,9.0,-100.00,NNW,328,11.0,20.0,67,0.00,,,0.00,270.000000,,2013-03-13 14:53:00,
2013-03-13 11:03:00,18.0,9.0,-100.00,NNW,328,11.0,20.0,67,0.00,,,0.00,270.000000,,2013-03-13 15:03:00,
2013-03-13 11:12:00,18.0,9.0,-100.00,NNW,328,11.0,20.0,67,0.00,,,0.00,270.000000,,2013-03-13 15:12:00,
2013-03-13 11:43:00,19.0,10.0,-100.00,NW,318,15.0,23.0,67,0.00,,,0.00,399.000000,,2013-03-13 15:43:00,
2013-03-13 11:53:00,19.0,10.0,-100.00,NW,318,15.0,23.0,67,0.00,,,0.00,399.000000,,2013-03-13 15:53:00,
2013-03-13 12:03:00,19.0,10.0,-100.00,NW,318,15.0,23.0,67,0.00,,,0.00,399.000000,,2013-03-13 16:03:00,
2013-03-13 12:12:00,19.0,10.0,-100.00,NW,318,15.0,23.0,67,0.00,,,0.00,399.000000,,2013-03-13 16:12:00,
2013-03-13 12:42:00,19.0,9.0,-100.00,NW,319,15.0,28.0,64,0.00,,,0.00,455.000000,,2013-03-13 16:42:00,
2013-03-13 12:52:00,19.0,9.0,-100.00,NW,319,15.0,28.0,64,0.00,,,0.00,455.000000,,2013-03-13 16:52:00,
2013-03-13 13:03:00,19.0,9.0,-100.00,NW,319,15.0,28.0,64,0.00,,,0.00,455.000000,,2013-03-13 17:03:00,
2013-03-13 13:12:00,19.0,9.0,-100.00,NW,319,15.0,28.0,64,0.00,,,0.00,455.000000,,2013-03-13 17:12:00,
2013-03-13 13:43:00,21.0,9.0,-100.00,NW,312,16.0,27.0,58,0.00,,,0.00,579.000000,,2013-03-13 17:43:00,
2013-03-13 13:53:00,21.0,9.0,-100.00,NW,312,16.0,27.0,58,0.00,,,0.00,579.000000,,2013-03-13 17:53:00,
2013-03-13 14:03:00,21.0,9.0,-100.00,NW,312,16.0,27.0,58,0.00,,,0.00,579.000000,,2013-03-13 18:03:00,
2013-03-13 14:13:00,21.0,9.0,-100.00,NW,312,16.0,27.0,58,0.00,,,0.00,579.000000,,2013-03-13 18:13:00,
2013-03-13 14:43:00,24.0,8.0,-100.00,NW,312,19.0,29.0,49,0.00,,,0.00,921.000000,,2013-03-13 18:43:00,
2013-03-13 14:52:00,24.0,8.0,-100.00,NW,312,19.0,29.0,49,0.00,,,0.00,921.000000,,2013-03-13 18:52:00,
2013-03-13 15:03:00,24.0,8.0,-100.00,NW,312,19.0,29.0,49,0.00,,,0.00,921.000000,,2013-03-13 19:03:00,
2013-03-13 15:12:00,24.0,8.0,-100.00,NW,312,19.0,29.0,49,0.00,,,0.00,921.000000,,2013-03-13 19:12:00,
2013-03-13 15:43:00,23.0,8.0,-100.00,NW,316,15.0,31.0,51,0.00,,,0.00,596.000000,,2013-03-13 19:43:00,
2013-03-13 15:53:00,23.0,8.0,-100.00,NW,316,15.0,31.0,51,0.00,,,0.00,596.000000,,2013-03-13 19:53:00,
2013-03-13 16:02:00,23.0,8.0,-100.00,NW,316,15.0,31.0,51,0.00,,,0.00,596.000000,,2013-03-13 20:02:00,
2013-03-13 16:12:00,23.0,8.0,-100.00,NW,316,15.0,31.0,51,0.00,,,0.00,596.000000,,2013-03-13 20:12:00,
2013-03-13 16:33:00,24.0,10.0,-100.00,NW,310,18.0,28.0,54,0.00,,,0.00,602.000000,,2013-03-13 20:33:00,
2013-03-13 16:42:00,24.0,10.0,-100.00,NW,310,18.0,28.0,54,0.00,,,0.00,602.000000,,2013-03-13 20:42:00,
2013-03-13 16:52:00,24.0,10.0,-100.00,NW,310,18.0,28.0,54,0.00,,,0.00,602.000000,,2013-03-13 20:52:00,
2013-03-13 17:02:00,24.0,10.0,-100.00,NW,310,18.0,28.0,54,0.00,,,0.00,602.000000,,2013-03-13 21:02:00,
2013-03-13 17:12:00,24.0,10.0,-100.00,NW,310,18.0,28.0,54,0.00,,,0.00,602.000000,,2013-03-13 21:12:00,
2013-03-13 17:42:00,25.0,10.0,-100.00,NW,306,17.0,30.0,53,0.00,,,0.00,541.000000,,2013-03-13 21:42:00,
2013-03-13 17:52:00,25.0,10.0,-100.00,NW,306,17.0,30.0,53,0.00,,,0.00,541.000000,,2013-03-13 21:52:00,
2013-03-13 18:02:00,25.0,10.0,-100.00,NW,306,17.0,30.0,53,0.00,,,0.00,541.000000,,2013-03-13 22:02:00,
2013-03-13 18:12:00,25.0,10.0,-100.00,NW,306,17.0,30.0,53,0.00,,,0.00,541.000000,,2013-03-13 22:12:00,
2013-03-13 18:42:00,24.0,11.0,-100.00,NW,313,17.0,27.0,58,0.00,,,0.00,318.000000,,2013-03-13 22:42:00,
2013-03-13 18:52:00,24.0,11.0,-100.00,NW,313,17.0,27.0,58,0.00,,,0.00,318.000000,,2013-03-13 22:52:00,
2013-03-13 19:02:00,24.0,11.0,-100.00,NW,313,17.0,27.0,58,0.00,,,0.00,318.000000,,2013-03-13 23:02:00,
2013-03-13 19:12:00,24.0,11.0,-100.00,NW,313,17.0,27.0,58,0.00,,,0.00,318.000000,,2013-03-13 23:12:00,
2013-03-13 19:43:00,24.0,11.0,-100.00,NW,309,17.0,27.0,58,0.00,,,0.00,196.000000,,2013-03-13 23:43:00,
2013-03-13 19:52:00,24.0,11.0,-100.00,NW,309,17.0,27.0,58,0.00,,,0.00,196.000000,,2013-03-13 23:52:00,
2013-03-13 20:02:00,24.0,11.0,-100.00,NW,309,17.0,27.0,58,0.00,,,0.00,196.000000,,2013-03-14 00:02:00,
2013-03-13 20:13:00,24.0,11.0,-100.00,NW,309,17.0,27.0,58,0.00,,,0.00,196.000000,,2013-03-14 00:13:00,
2013-03-13 20:33:00,22.0,11.0,-100.00,WNW,301,9.0,24.0,63,0.00,,,0.00,15.000000,,2013-03-14 00:33:00,
2013-03-13 20:42:00,22.0,11.0,-100.00,WNW,301,9.0,24.0,63,0.00,,,0.00,15.000000,,2013-03-14 00:42:00,
2013-03-13 20:52:00,22.0,11.0,-100.00,WNW,301,9.0,24.0,63,0.00,,,0.00,15.000000,,2013-03-14 00:52:00,
2013-03-13 21:03:00,22.0,11.0,-100.00,WNW,301,9.0,24.0,63,0.00,,,0.00,15.000000,,2013-03-14 01:03:00,
2013-03-13 21:12:00,22.0,11.0,-100.00,WNW,301,9.0,24.0,63,0.00,,,0.00,15.000000,,2013-03-14 01:12:00,
2013-03-13 21:33:00,22.0,11.0,-100.00,WNW,295,10.0,17.0,61,0.00,,,0.00,0.000000,,2013-03-14 01:33:00,
2013-03-13 21:42:00,22.0,11.0,-100.00,WNW,295,10.0,17.0,61,0.00,,,0.00,0.000000,,2013-03-14 01:42:00,
2013-03-13 21:53:00,22.0,11.0,-100.00,WNW,295,10.0,17.0,61,0.00,,,0.00,0.000000,,2013-03-14 01:53:00,
2013-03-13 22:02:00,22.0,11.0,-100.00,WNW,295,10.0,17.0,61,0.00,,,0.00,0.000000,,2013-03-14 02:02:00,
2013-03-13 22:12:00,22.0,11.0,-100.00,WNW,295,10.0,17.0,61,0.00,,,0.00,0.000000,,2013-03-14 02:12:00,
2013-03-13 23:02:00,21.0,11.0,-100.00,WNW,289,7.0,15.0,66,0.00,,,0.00,0.000000,,2013-03-14 03:02:00,
2013-03-13 23:12:00,21.0,11.0,-100.00,WNW,289,7.0,15.0,66,0.00,,,0.00,0.000000,,2013-03-14 03:12:00,
2013-03-13 23:33:00,22.0,13.0,-100.00,WNW,290,8.0,14.0,68,0.00,,,0.00,0.000000,,2013-03-14 03:33:00,
2013-03-13 23:42:00,22.0,13.0,-100.00,WNW,290,8.0,14.0,68,0.00,,,0.00,0.000000,,2013-03-14 03:42:00,
2013-03-13 23:53:00,22.0,13.0,-100.00,WNW,290,8.0,14.0,68,0.00,,,0.00,0.000000,,2013-03-14 03:53:00,